Impacts TAF Board INFO
FOR SITUATIONAL AWARENESS. NOT TO BE USED FOR FLIGHT PLANNING PURPOSES.
IDs:

KJFK - New York/Kennedy Int, NY, US

Issued at 0833 UTC 24 Jan 2017
Updated at 1110 UTC 24 Jan 2017
Potential Impact None Slight Moderate High
Time1051Z 24/12Z 24/13Z 24/14Z 24/15Z 24/16Z 24/17Z 24/18Z 24/19Z 24/20Z 24/21Z 24/22Z 24/23Z 25/00Z
Type OBS PRVL PRVL PRVL PRVL PRVL PRVL PRVL PRVL PRVL PRVL PRVL PRVL PRVL
VIS 4 5 5 5 5 5 5 5 5 5 5 5 5 5
CIG 11 10 10 10 10 8 8 8 8 8 12 12 12 12
Cover OVC OVC OVC OVC OVC OVC OVC OVC OVC OVC OVC OVC OVC OVC
FltCat MVFR MVFR MVFR MVFR MVFR IFR IFR IFR IFR IFR MVFR MVFR MVFR MVFR
WX -RA BR -RA BR -RA BR -RA BR -RA BR -RA BR -RA BR -RA BR -RA BR -RA BR -RA BR -RA BR -RA BR -RA BR
WDir 20 30 30 30 30 20 20 20 20 20 350 350 350 350
WSpd 21 20 20 20 20 16 16 16 16 16 16 16 16 16
WGst 26 28 28 28 28 22 22 22 22 22 -- -- -- --

Raw TAF
KJFK 240833Z 2409/2512 03023G36KT 5SM -RA BR OVC014
  FM241200 03020G28KT 5SM -RA BR OVC010
  FM241600 02016G22KT 5SM -RA BR OVC008
  FM242100 35016KT 5SM -RA BR OVC012
  FM250400 32018KT P6SM SCT012 BKN040
  FM250900 30014KT P6SM SCT040 SCT180


Raw METAR
KJFK 241051Z 02021G26KT 4SM -RA BR OVC011 04/02 A2935 RMK AO2 PK WND 02029/1029 SLP939 P0002 T00390022 $
KJFK 240951Z 02017G26KT 4SM -RA BR OVC012 03/02 A2934 RMK AO2 PK WND 02028/0936 SLP936 P0002 T00330022 $
KJFK 240851Z 03019G32KT 4SM -RA BR OVC014 03/02 A2934 RMK AO2 PK WND 04033/0802 SLP935 P0007 60027 T00330022 55016 $
KJFK 240838Z 03025G32KT 4SM -RA BR OVC014 03/02 A2933 RMK AO2 PK WND 04033/0802 P0005 T00330022 $

METAR Board
Radar Display
Forecast Discussion

FOR SITUATIONAL AWARENESS. NOT TO BE USED FOR FLIGHT PLANNING PURPOSES.

Page loaded:  11:10 UTC  |   03:10 AM Pacific  |   04:10 AM Mountain  |   05:10 AM Central  |   06:10 AM Eastern

 

ADVISORIES

FORECASTS

FORECASTS

OBSERVATIONS

USER TOOLS

ABOUT US